createdAt,value
2022-10-19T00:00:31.876Z,82
2022-10-19T00:01:32.577Z,81
2022-10-19T00:02:32.656Z,82
2022-10-19T00:03:32.643Z,81
2022-10-19T00:04:31.942Z,81
2022-10-19T00:05:32.565Z,82
2022-10-19T00:06:32.597Z,81
2022-10-19T00:07:32.895Z,82
2022-10-19T00:08:31.914Z,81
2022-10-19T00:09:32.659Z,81
2022-10-19T00:10:32.605Z,81
2022-10-19T00:11:32.571Z,81
2022-10-19T00:12:31.916Z,82
2022-10-19T00:13:32.603Z,81
2022-10-19T00:14:32.597Z,81
2022-10-19T00:15:32.589Z,81
2022-10-19T00:16:31.893Z,81
2022-10-19T00:17:32.703Z,81
2022-10-19T00:18:32.593Z,81
2022-10-19T00:19:32.569Z,81
2022-10-19T00:20:31.872Z,81
2022-10-19T00:21:32.557Z,81
2022-10-19T00:22:32.876Z,81
2022-10-19T00:23:32.593Z,81
2022-10-19T00:24:31.896Z,81
2022-10-19T00:25:32.695Z,81
2022-10-19T00:26:32.574Z,81
2022-10-19T00:27:32.582Z,81
2022-10-19T00:28:31.957Z,81
2022-10-19T00:29:32.614Z,81
2022-10-19T00:30:32.599Z,81
2022-10-19T00:31:32.596Z,81
2022-10-19T00:32:32.117Z,81
2022-10-19T00:33:32.594Z,81
2022-10-19T00:34:32.590Z,81
2022-10-19T00:35:32.676Z,81
2022-10-19T00:36:31.894Z,81
2022-10-19T00:37:32.612Z,81
2022-10-19T00:38:32.548Z,81
2022-10-19T00:39:32.547Z,81
2022-10-19T00:40:31.891Z,80
2022-10-19T00:41:32.589Z,81
2022-10-19T00:42:32.950Z,80
2022-10-19T00:43:32.595Z,80
2022-10-19T00:44:31.862Z,80
2022-10-19T00:45:32.578Z,80
2022-10-19T00:46:32.584Z,80
2022-10-19T00:47:32.588Z,80
2022-10-19T00:48:31.907Z,80
2022-10-19T00:49:32.571Z,80
2022-10-19T00:50:32.652Z,80
2022-10-19T00:51:32.584Z,80
2022-10-19T00:52:32.216Z,80
2022-10-19T00:53:32.594Z,80
2022-10-19T00:54:32.521Z,80
2022-10-19T00:55:32.585Z,80
2022-10-19T00:56:31.897Z,80
2022-10-19T00:57:32.533Z,80
2022-10-19T00:58:32.565Z,80
2022-10-19T00:59:32.570Z,80
2022-10-19T01:00:31.907Z,80
2022-10-19T01:01:32.611Z,80
2022-10-19T01:02:32.840Z,80
2022-10-19T01:03:32.528Z,80
2022-10-19T01:04:31.849Z,80
2022-10-19T01:05:32.535Z,80
2022-10-19T01:06:32.549Z,80
2022-10-19T01:07:32.926Z,80
2022-10-19T01:08:31.862Z,80
2022-10-19T01:09:32.580Z,80
2022-10-19T01:10:32.582Z,80
2022-10-19T01:11:32.588Z,80
2022-10-19T01:12:31.903Z,80
2022-10-19T01:13:32.546Z,80
2022-10-19T01:14:32.554Z,80
2022-10-19T01:15:32.649Z,80
2022-10-19T01:16:31.872Z,80
2022-10-19T01:17:32.797Z,80
2022-10-19T01:18:32.578Z,80
2022-10-19T01:19:32.602Z,80
2022-10-19T01:20:31.891Z,80
2022-10-19T01:21:32.573Z,80
2022-10-19T01:22:32.560Z,80
2022-10-19T01:23:32.590Z,80
2022-10-19T01:24:34.814Z,80
2022-10-19T01:25:32.544Z,80
2022-10-19T01:26:32.588Z,80
2022-10-19T01:27:32.897Z,80
2022-10-19T01:28:31.912Z,80
2022-10-19T01:29:32.678Z,80
2022-10-19T01:30:32.569Z,80
2022-10-19T01:31:32.582Z,80
2022-10-19T01:32:31.885Z,80
2022-10-19T01:33:32.570Z,80
2022-10-19T01:34:32.583Z,80
2022-10-19T01:35:32.724Z,80
2022-10-19T01:36:32.555Z,80
2022-10-19T01:37:33.030Z,80
2022-10-19T01:38:32.619Z,80
2022-10-19T01:39:32.564Z,80
2022-10-19T01:40:32.698Z,80
2022-10-19T01:41:32.730Z,80
2022-10-19T01:42:32.702Z,80
2022-10-19T01:43:32.740Z,80
2022-10-19T01:44:31.955Z,80
2022-10-19T01:45:32.638Z,80
2022-10-19T01:46:32.711Z,80
2022-10-19T01:47:32.907Z,80
2022-10-19T01:48:31.974Z,80
2022-10-19T01:49:32.514Z,80
2022-10-19T01:50:32.591Z,80
2022-10-19T01:51:32.572Z,80
2022-10-19T01:52:32.939Z,80
2022-10-19T01:53:32.539Z,79
2022-10-19T01:54:32.560Z,79
2022-10-19T01:55:32.540Z,80
2022-10-19T01:56:32.568Z,80
2022-10-19T01:57:32.553Z,80
2022-10-19T01:58:32.564Z,80
2022-10-19T01:59:32.706Z,80
2022-10-19T02:00:32.579Z,80
2022-10-19T02:01:32.557Z,80
2022-10-19T02:02:33.025Z,80
2022-10-19T02:03:32.556Z,80
2022-10-19T02:04:32.585Z,80
2022-10-19T02:05:32.542Z,80
2022-10-19T02:06:32.596Z,80
2022-10-19T02:07:32.557Z,80
2022-10-19T02:08:32.578Z,81
2022-10-19T02:09:32.608Z,81
2022-10-19T02:10:32.545Z,81
2022-10-19T02:11:32.551Z,81
2022-10-19T02:12:32.879Z,81
2022-10-19T02:13:32.539Z,81
2022-10-19T02:14:32.554Z,81
2022-10-19T02:15:32.570Z,81
2022-10-19T02:16:32.695Z,81
2022-10-19T02:17:32.551Z,81
2022-10-19T02:18:32.575Z,81
2022-10-19T02:19:32.563Z,81
2022-10-19T02:20:32.642Z,81
2022-10-19T02:21:32.557Z,81
2022-10-19T02:22:32.884Z,81
2022-10-19T02:23:32.552Z,81
2022-10-19T02:24:32.540Z,81
2022-10-19T02:25:32.546Z,81
2022-10-19T02:26:32.571Z,82
2022-10-19T02:27:32.558Z,82
2022-10-19T02:28:32.592Z,82
2022-10-19T02:29:32.540Z,82
2022-10-19T02:30:32.610Z,82
2022-10-19T02:31:32.553Z,81
2022-10-19T02:32:32.854Z,82
2022-10-19T02:33:32.583Z,81
2022-10-19T02:34:32.572Z,82
2022-10-19T02:35:32.568Z,81
2022-10-19T02:36:32.560Z,81
2022-10-19T02:37:32.563Z,81
2022-10-19T02:38:32.566Z,81
2022-10-19T02:39:32.557Z,82
2022-10-19T02:40:32.565Z,82
2022-10-19T02:41:32.544Z,82
2022-10-19T02:42:33.097Z,82
2022-10-19T02:43:32.569Z,82
2022-10-19T02:44:32.586Z,82
2022-10-19T02:45:32.558Z,82
2022-10-19T02:46:32.631Z,82
2022-10-19T02:47:33.026Z,82
2022-10-19T02:48:32.588Z,82
2022-10-19T02:49:32.566Z,82
2022-10-19T02:50:32.549Z,82
2022-10-19T02:51:32.551Z,82
2022-10-19T02:52:32.550Z,82
2022-10-19T02:53:32.595Z,82
2022-10-19T02:54:32.522Z,82
2022-10-19T02:55:32.662Z,82
2022-10-19T02:56:32.637Z,82
2022-10-19T02:57:32.789Z,82
2022-10-19T02:58:32.533Z,82
2022-10-19T02:59:32.550Z,82
2022-10-19T03:00:32.518Z,82
2022-10-19T03:01:32.658Z,82
2022-10-19T03:02:32.596Z,82
2022-10-19T03:03:32.596Z,82
2022-10-19T03:04:32.540Z,82
2022-10-19T03:05:32.565Z,82
2022-10-19T03:06:32.545Z,82
2022-10-19T03:07:32.946Z,82
2022-10-19T03:08:32.671Z,82
2022-10-19T03:09:32.562Z,83
2022-10-19T03:10:32.670Z,83
2022-10-19T03:11:32.637Z,82
2022-10-19T03:12:32.658Z,83
2022-10-19T03:13:32.683Z,83
2022-10-19T03:14:32.562Z,83
2022-10-19T03:15:32.727Z,83
2022-10-19T03:16:32.566Z,83
2022-10-19T03:17:32.930Z,83
2022-10-19T03:18:32.584Z,83
2022-10-19T03:19:32.725Z,83
2022-10-19T03:20:32.631Z,83
2022-10-19T03:21:32.748Z,83
2022-10-19T03:22:32.712Z,83
2022-10-19T03:23:32.706Z,83
2022-10-19T03:24:32.571Z,83
2022-10-19T03:25:32.622Z,83
2022-10-19T03:26:32.738Z,83
2022-10-19T03:27:32.867Z,83
2022-10-19T03:28:32.560Z,83
2022-10-19T03:29:32.629Z,83
2022-10-19T03:30:32.705Z,83
2022-10-19T03:31:32.733Z,83
2022-10-19T03:32:32.631Z,83
2022-10-19T03:33:32.769Z,83
2022-10-19T03:34:32.563Z,83
2022-10-19T03:35:32.541Z,84
2022-10-19T03:36:32.529Z,84
2022-10-19T03:37:33.004Z,84
2022-10-19T03:38:32.544Z,84
2022-10-19T03:39:32.553Z,84
2022-10-19T03:40:32.644Z,84
2022-10-19T03:41:32.695Z,84
2022-10-19T03:42:32.673Z,84
2022-10-19T03:43:32.788Z,84
2022-10-19T03:44:32.519Z,84
2022-10-19T03:45:32.612Z,84
2022-10-19T03:46:32.562Z,84
2022-10-19T03:47:32.677Z,84
2022-10-19T03:48:32.516Z,84
2022-10-19T03:49:34.619Z,84
2022-10-19T03:50:32.605Z,84
2022-10-19T03:51:32.555Z,84
2022-10-19T03:52:32.522Z,84
2022-10-19T03:53:33.303Z,84
2022-10-19T03:54:32.562Z,84
2022-10-19T03:55:32.550Z,84
2022-10-19T03:56:32.540Z,84
2022-10-19T03:57:32.929Z,84
2022-10-19T03:58:32.528Z,84
2022-10-19T03:59:32.527Z,84
2022-10-19T04:00:32.647Z,84
2022-10-19T04:01:32.650Z,84
2022-10-19T04:02:32.544Z,84
2022-10-19T04:03:32.622Z,84
2022-10-19T04:04:32.583Z,84
2022-10-19T04:05:32.666Z,84
2022-10-19T04:06:32.537Z,84
2022-10-19T04:07:32.701Z,84
2022-10-19T04:08:32.552Z,84
2022-10-19T04:09:32.564Z,84
2022-10-19T04:10:32.510Z,84
2022-10-19T04:11:32.577Z,84
2022-10-19T04:12:32.589Z,84
2022-10-19T04:13:32.561Z,84
2022-10-19T04:14:39.166Z,84
2022-10-19T04:15:32.550Z,84
2022-10-19T04:16:32.575Z,84
2022-10-19T04:17:32.964Z,84
2022-10-19T04:18:32.499Z,85
2022-10-19T04:19:32.542Z,85
2022-10-19T04:20:32.539Z,85
2022-10-19T04:21:32.556Z,85
2022-10-19T04:22:32.520Z,85
2022-10-19T04:23:32.549Z,85
2022-10-19T04:24:32.600Z,85
2022-10-19T04:25:32.642Z,85
2022-10-19T04:26:32.512Z,85
2022-10-19T04:27:32.759Z,85
2022-10-19T04:28:32.601Z,85
2022-10-19T04:29:32.580Z,85
2022-10-19T04:30:32.509Z,85
2022-10-19T04:31:32.692Z,85
2022-10-19T04:32:32.531Z,85
2022-10-19T04:33:32.583Z,85
2022-10-19T04:34:35.181Z,85
2022-10-19T04:35:32.523Z,85
2022-10-19T04:36:32.546Z,85
2022-10-19T04:37:32.900Z,85
2022-10-19T04:38:32.526Z,85
2022-10-19T04:39:32.554Z,86
2022-10-19T04:40:32.541Z,86
2022-10-19T04:41:32.547Z,86
2022-10-19T04:42:32.512Z,86
2022-10-19T04:43:32.671Z,86
2022-10-19T04:44:32.547Z,86
2022-10-19T04:45:32.546Z,86
2022-10-19T04:46:32.531Z,86
2022-10-19T04:47:32.891Z,86
2022-10-19T04:48:32.543Z,86
2022-10-19T04:49:32.551Z,86
2022-10-19T04:50:32.544Z,86
2022-10-19T04:51:32.549Z,86
2022-10-19T04:52:32.545Z,86
2022-10-19T04:53:32.574Z,86
2022-10-19T04:54:32.563Z,86
2022-10-19T04:55:32.520Z,86
2022-10-19T04:56:32.679Z,86
2022-10-19T04:57:32.949Z,86
2022-10-19T04:58:32.552Z,86
2022-10-19T04:59:32.550Z,86
2022-10-19T05:00:32.693Z,86
2022-10-19T05:01:32.526Z,86
2022-10-19T05:02:32.551Z,86
2022-10-19T05:03:32.527Z,87
2022-10-19T05:04:32.554Z,86
2022-10-19T05:05:32.530Z,86
2022-10-19T05:06:32.533Z,86
2022-10-19T05:07:32.945Z,86
2022-10-19T05:08:32.564Z,86
2022-10-19T05:09:32.532Z,86
2022-10-19T05:10:32.573Z,87
2022-10-19T05:11:32.528Z,87
2022-10-19T05:12:32.554Z,86
2022-10-19T05:13:32.569Z,86
2022-10-19T05:14:32.566Z,86
2022-10-19T05:15:32.575Z,87
2022-10-19T05:16:32.698Z,86
2022-10-19T05:17:32.953Z,86
2022-10-19T05:18:32.539Z,86
2022-10-19T05:19:32.539Z,87
2022-10-19T05:20:32.514Z,86
2022-10-19T05:21:32.544Z,86
2022-10-19T05:22:32.552Z,86
2022-10-19T05:24:32.645Z,86
2022-10-19T05:25:32.543Z,86
2022-10-19T05:26:32.524Z,86
2022-10-19T05:27:32.854Z,86
2022-10-19T05:28:32.710Z,86
2022-10-19T05:29:32.539Z,86
2022-10-19T05:30:32.556Z,86
2022-10-19T05:31:32.549Z,86
2022-10-19T05:32:32.552Z,86
2022-10-19T05:33:32.562Z,86
2022-10-19T05:34:32.541Z,86
2022-10-19T05:35:32.564Z,86
2022-10-19T05:36:32.525Z,86
2022-10-19T05:37:32.803Z,86
2022-10-19T05:38:32.531Z,86
2022-10-19T05:39:32.550Z,86
2022-10-19T05:40:32.553Z,87
2022-10-19T05:41:32.549Z,87
2022-10-19T05:42:32.564Z,87
2022-10-19T05:43:32.545Z,87
2022-10-19T05:44:32.600Z,87
2022-10-19T05:45:32.636Z,86
2022-10-19T05:46:32.561Z,86
2022-10-19T05:47:32.760Z,86
2022-10-19T05:48:32.532Z,87
2022-10-19T05:49:32.562Z,86
2022-10-19T05:50:32.552Z,86
2022-10-19T05:51:32.598Z,86
2022-10-19T05:52:32.518Z,86
2022-10-19T05:53:32.587Z,86
2022-10-19T05:54:32.511Z,86
2022-10-19T05:55:32.575Z,86
2022-10-19T05:56:32.522Z,86
2022-10-19T05:57:32.762Z,86
2022-10-19T05:58:32.553Z,86
2022-10-19T05:59:32.538Z,86
2022-10-19T06:00:32.579Z,86
2022-10-19T06:01:32.599Z,86
2022-10-19T06:02:32.571Z,86
2022-10-19T06:03:32.531Z,86
2022-10-19T06:04:32.541Z,86
2022-10-19T06:05:32.532Z,86
2022-10-19T06:06:32.605Z,86
2022-10-19T06:07:32.727Z,86
2022-10-19T06:08:32.577Z,86
2022-10-19T06:09:32.517Z,86
2022-10-19T06:10:32.578Z,86
2022-10-19T06:11:32.543Z,86
2022-10-19T06:12:32.558Z,86
2022-10-19T06:13:32.544Z,86
2022-10-19T06:14:32.630Z,86
2022-10-19T06:15:32.506Z,86
2022-10-19T06:16:32.535Z,86
2022-10-19T06:17:32.785Z,86
2022-10-19T06:18:32.526Z,86
2022-10-19T06:19:32.551Z,86
2022-10-19T06:20:32.537Z,86
2022-10-19T06:21:32.735Z,86
2022-10-19T06:22:32.555Z,86
2022-10-19T06:23:32.674Z,86
2022-10-19T06:24:32.549Z,86
2022-10-19T06:25:32.521Z,86
2022-10-19T06:26:32.550Z,86
2022-10-19T06:27:32.976Z,86
2022-10-19T06:28:32.621Z,86
2022-10-19T06:29:32.546Z,86
2022-10-19T06:30:32.632Z,86
2022-10-19T06:31:32.656Z,86
2022-10-19T06:32:32.542Z,86
2022-10-19T06:33:32.536Z,85
2022-10-19T06:34:32.572Z,85
2022-10-19T06:35:32.496Z,85
2022-10-19T06:36:32.557Z,85
2022-10-19T06:37:32.826Z,85
2022-10-19T06:38:32.521Z,85
2022-10-19T06:39:32.513Z,85
2022-10-19T06:40:32.703Z,85
2022-10-19T06:41:32.536Z,85
2022-10-19T06:42:32.549Z,85
2022-10-19T06:43:32.520Z,85
2022-10-19T06:44:32.606Z,85
2022-10-19T06:45:35.852Z,85
2022-10-19T06:46:32.609Z,85
2022-10-19T06:47:32.855Z,85
2022-10-19T06:48:32.671Z,85
2022-10-19T06:49:32.560Z,85
2022-10-19T06:50:32.559Z,85
2022-10-19T06:51:32.595Z,84
2022-10-19T06:52:32.902Z,84
2022-10-19T06:53:32.552Z,84
2022-10-19T06:54:32.544Z,83
2022-10-19T06:55:32.561Z,83
2022-10-19T06:56:32.532Z,83
2022-10-19T06:57:32.714Z,82
2022-10-19T06:58:32.539Z,82
2022-10-19T06:59:32.533Z,82
2022-10-19T07:00:32.492Z,82
2022-10-19T07:01:32.552Z,82
2022-10-19T07:02:33.361Z,81
2022-10-19T07:03:32.550Z,80
2022-10-19T07:04:32.495Z,79
2022-10-19T07:05:32.544Z,79
2022-10-19T07:06:32.556Z,78
2022-10-19T07:07:32.923Z,78
2022-10-19T07:08:32.515Z,78
2022-10-19T07:09:32.524Z,77
2022-10-19T07:10:32.555Z,76
2022-10-19T07:11:32.502Z,76
2022-10-19T07:12:32.480Z,76
2022-10-19T07:13:32.516Z,76
2022-10-19T07:14:32.539Z,76
2022-10-19T07:15:32.544Z,76
2022-10-19T07:16:32.496Z,76
2022-10-19T07:17:33.013Z,76
2022-10-19T07:18:32.533Z,75
2022-10-19T07:19:32.538Z,74
2022-10-19T07:20:32.528Z,74
2022-10-19T07:21:32.535Z,74
2022-10-19T07:22:32.512Z,74
2022-10-19T07:23:32.546Z,74
2022-10-19T07:24:32.537Z,74
2022-10-19T07:25:32.541Z,74
2022-10-19T07:26:32.609Z,74
2022-10-19T07:27:37.417Z,74
2022-10-19T07:28:32.531Z,73
2022-10-19T07:29:32.516Z,73
2022-10-19T07:30:32.535Z,72
2022-10-19T07:31:32.539Z,74
2022-10-19T07:32:32.502Z,73
2022-10-19T07:33:32.533Z,73
2022-10-19T07:34:32.533Z,73
2022-10-19T07:35:32.548Z,72
2022-10-19T07:36:32.521Z,72
2022-10-19T07:37:32.862Z,72
2022-10-19T07:38:32.548Z,72
2022-10-19T07:39:32.582Z,72
2022-10-19T07:40:32.566Z,72
2022-10-19T07:41:32.579Z,72
2022-10-19T07:42:32.530Z,72
2022-10-19T07:43:32.579Z,72
2022-10-19T07:44:32.489Z,71
2022-10-19T07:45:32.525Z,71
2022-10-19T07:46:32.531Z,71
2022-10-19T07:47:32.931Z,70
2022-10-19T07:48:32.503Z,70
2022-10-19T07:49:32.515Z,71
2022-10-19T07:50:32.528Z,70
2022-10-19T07:51:32.523Z,70
2022-10-19T07:52:35.935Z,70
2022-10-19T07:53:32.559Z,70
2022-10-19T07:54:32.533Z,71
2022-10-19T07:55:32.534Z,71
2022-10-19T07:56:32.534Z,70
2022-10-19T07:57:32.506Z,70
2022-10-19T07:58:32.556Z,71
2022-10-19T07:59:32.529Z,70
2022-10-19T08:00:32.744Z,70
2022-10-19T08:01:32.514Z,70
2022-10-19T08:02:39.675Z,71
2022-10-19T08:05:01.196Z,69
2022-10-19T08:05:32.570Z,70
2022-10-19T08:06:32.554Z,69
2022-10-19T08:07:32.498Z,69
2022-10-19T08:08:32.593Z,70
2022-10-19T08:09:52.647Z,70
2022-10-19T08:10:32.584Z,70
2022-10-19T08:11:32.517Z,70
2022-10-19T08:12:33.015Z,69
2022-10-19T08:13:32.523Z,69
2022-10-19T08:14:32.545Z,70
2022-10-19T08:15:32.524Z,71
2022-10-19T08:16:32.576Z,70
2022-10-19T08:17:32.522Z,71
2022-10-19T08:19:32.519Z,72
2022-10-19T08:20:32.554Z,72
2022-10-19T08:21:32.515Z,72
2022-10-19T08:22:32.851Z,71
2022-10-19T08:23:32.531Z,71
2022-10-19T08:24:32.524Z,71
2022-10-19T08:25:32.530Z,70
2022-10-19T08:26:32.524Z,71
2022-10-19T08:27:32.535Z,70
2022-10-19T08:28:32.508Z,70
2022-10-19T08:29:32.519Z,70
2022-10-19T08:30:32.529Z,70
2022-10-19T08:31:32.548Z,70
2022-10-19T08:32:33.008Z,70
2022-10-19T08:33:32.493Z,69
2022-10-19T08:34:32.536Z,69
2022-10-19T08:35:32.546Z,69
2022-10-19T08:36:32.660Z,69
2022-10-19T08:37:44.342Z,69
2022-10-19T08:38:32.526Z,69
2022-10-19T08:39:32.565Z,68
2022-10-19T08:40:32.534Z,68
2022-10-19T08:41:32.530Z,68
2022-10-19T08:42:33.074Z,69
2022-10-19T08:43:32.506Z,68
2022-10-19T08:44:32.530Z,68
2022-10-19T08:45:32.542Z,68
2022-10-19T08:46:32.540Z,68
2022-10-19T08:47:32.519Z,68
2022-10-19T08:48:32.532Z,68
2022-10-19T08:49:32.486Z,68
2022-10-19T08:50:32.529Z,68
2022-10-19T08:51:32.528Z,68
2022-10-19T08:52:34.604Z,68
2022-10-19T08:53:32.518Z,67
2022-10-19T08:54:32.531Z,68
2022-10-19T08:55:32.546Z,68
2022-10-19T08:56:49.325Z,67
2022-10-19T08:57:32.992Z,67
2022-10-19T08:58:32.514Z,67
2022-10-19T08:59:32.521Z,67
2022-10-19T09:00:32.651Z,66
2022-10-19T09:01:35.280Z,66
2022-10-19T09:02:32.975Z,66
2022-10-19T09:03:54.443Z,65
2022-10-19T09:04:32.574Z,65
2022-10-19T09:05:32.512Z,65
2022-10-19T09:06:32.478Z,65
2022-10-19T09:07:32.542Z,65
2022-10-19T09:08:32.638Z,64
2022-10-19T09:09:32.645Z,64
2022-10-19T09:10:32.540Z,64
2022-10-19T09:11:32.562Z,65
2022-10-19T09:12:32.866Z,65
2022-10-19T09:13:41.469Z,65
2022-10-19T09:14:32.577Z,66
2022-10-19T09:15:32.541Z,66
2022-10-19T09:16:32.525Z,66
2022-10-19T09:17:32.558Z,67
2022-10-19T09:18:32.477Z,67
2022-10-19T09:19:32.551Z,65
2022-10-19T09:20:32.823Z,65
2022-10-19T09:21:37.980Z,65
2022-10-19T09:22:32.862Z,65
2022-10-19T09:23:32.519Z,65
2022-10-19T09:24:32.508Z,65
2022-10-19T09:25:32.534Z,66
2022-10-19T09:26:32.517Z,66
2022-10-19T09:27:32.516Z,66
2022-10-19T09:28:38.782Z,66
2022-10-19T09:29:32.532Z,66
2022-10-19T09:30:32.572Z,66
2022-10-19T09:31:34.901Z,66
2022-10-19T09:32:32.888Z,66
2022-10-19T09:33:32.538Z,67
2022-10-19T09:34:32.564Z,66
2022-10-19T09:35:32.529Z,66
2022-10-19T09:36:49.351Z,66
2022-10-19T09:37:32.642Z,65
2022-10-19T09:38:32.572Z,64
2022-10-19T09:39:32.507Z,64
2022-10-19T09:40:32.544Z,64
2022-10-19T09:41:32.532Z,64
2022-10-19T09:42:32.760Z,64
2022-10-19T09:43:32.514Z,64
2022-10-19T09:44:32.535Z,65
2022-10-19T09:45:32.583Z,66
2022-10-19T09:46:32.618Z,65
2022-10-19T09:47:32.934Z,66
2022-10-19T09:48:32.539Z,66
2022-10-19T09:49:32.542Z,66
2022-10-19T09:50:32.506Z,66
2022-10-19T09:51:32.520Z,66
2022-10-19T09:52:32.506Z,65
2022-10-19T09:53:32.517Z,65
2022-10-19T09:54:32.522Z,66
2022-10-19T09:55:32.534Z,65
2022-10-19T09:56:32.523Z,65
2022-10-19T09:57:32.861Z,65
2022-10-19T09:58:33.318Z,65
2022-10-19T09:59:32.518Z,64
2022-10-19T10:00:32.742Z,65
2022-10-19T10:01:41.590Z,65
2022-10-19T10:02:32.887Z,66
2022-10-19T10:03:32.555Z,65
2022-10-19T10:04:32.502Z,66
2022-10-19T10:05:32.520Z,66
2022-10-19T10:06:32.481Z,66
2022-10-19T10:07:32.752Z,66
2022-10-19T10:08:32.566Z,66
2022-10-19T10:09:32.521Z,66
2022-10-19T10:10:32.510Z,67
2022-10-19T10:11:32.505Z,66
2022-10-19T10:12:32.822Z,66
2022-10-19T10:13:32.599Z,66
2022-10-19T10:14:32.495Z,66
2022-10-19T10:15:32.529Z,66
2022-10-19T10:16:32.496Z,66
2022-10-19T10:17:32.507Z,67
2022-10-19T10:18:32.494Z,66
2022-10-19T10:19:32.531Z,66
2022-10-19T10:20:32.505Z,66
2022-10-19T10:21:32.507Z,66
2022-10-19T10:22:32.836Z,67
2022-10-19T10:23:32.543Z,66
2022-10-19T10:24:32.518Z,66
2022-10-19T10:25:32.495Z,67
2022-10-19T10:26:32.527Z,66
2022-10-19T10:27:32.755Z,66
2022-10-19T10:28:32.565Z,67
2022-10-19T10:29:32.531Z,65
2022-10-19T10:30:32.500Z,65
2022-10-19T10:31:32.504Z,66
2022-10-19T10:32:32.803Z,65
2022-10-19T10:33:44.132Z,65
2022-10-19T10:34:45.646Z,64
2022-10-19T10:35:32.559Z,64
2022-10-19T10:36:32.531Z,64
2022-10-19T10:37:32.908Z,64
2022-10-19T10:38:32.481Z,64
2022-10-19T10:39:32.558Z,64
2022-10-19T10:40:32.526Z,64
2022-10-19T10:41:32.521Z,64
2022-10-19T10:42:32.816Z,64
2022-10-19T10:43:32.514Z,64
2022-10-19T10:44:32.520Z,64
2022-10-19T10:45:32.531Z,65
2022-10-19T10:46:32.507Z,65
2022-10-19T10:47:32.949Z,65
2022-10-19T10:48:32.528Z,64
2022-10-19T10:49:32.539Z,65
2022-10-19T10:50:32.500Z,65
2022-10-19T10:51:32.532Z,65
2022-10-19T10:52:32.934Z,65
2022-10-19T10:53:32.541Z,64
2022-10-19T10:54:32.537Z,64
2022-10-19T10:55:32.709Z,63
2022-10-19T10:56:32.510Z,63
2022-10-19T10:57:32.630Z,64
2022-10-19T10:58:32.493Z,64
2022-10-19T10:59:32.537Z,63
2022-10-19T11:00:32.539Z,63
2022-10-19T11:01:32.602Z,64
2022-10-19T11:02:32.496Z,64
2022-10-19T11:03:32.618Z,63
2022-10-19T11:04:32.529Z,63
2022-10-19T11:05:32.599Z,63
2022-10-19T11:06:32.514Z,63
2022-10-19T11:07:33.052Z,63
2022-10-19T11:08:32.564Z,63
2022-10-19T11:09:32.553Z,63
2022-10-19T11:10:32.529Z,62
2022-10-19T11:11:32.544Z,62
2022-10-19T11:12:35.043Z,62
2022-10-19T11:13:32.519Z,62
2022-10-19T11:14:32.502Z,60
2022-10-19T11:15:32.701Z,61
2022-10-19T11:16:32.515Z,61
2022-10-19T11:17:32.887Z,61
2022-10-19T11:18:32.488Z,62
2022-10-19T11:19:32.666Z,62
2022-10-19T11:20:32.546Z,61
2022-10-19T11:21:32.597Z,61
2022-10-19T11:22:32.745Z,61
2022-10-19T11:23:32.541Z,61
2022-10-19T11:24:32.527Z,61
2022-10-19T11:25:32.584Z,62
2022-10-19T11:26:32.501Z,62
2022-10-19T11:27:32.885Z,62
2022-10-19T11:28:32.525Z,62
2022-10-19T11:29:32.577Z,62
2022-10-19T11:30:32.513Z,62
2022-10-19T11:31:32.531Z,62
2022-10-19T11:32:32.939Z,61
2022-10-19T11:33:32.631Z,61
2022-10-19T11:34:32.524Z,61
2022-10-19T11:35:32.553Z,61
2022-10-19T11:36:32.528Z,62
2022-10-19T11:37:32.867Z,62
2022-10-19T11:38:32.539Z,62
2022-10-19T11:39:32.568Z,62
2022-10-19T11:40:32.537Z,62
2022-10-19T11:41:32.554Z,62
2022-10-19T11:42:32.560Z,63
2022-10-19T11:43:32.566Z,62
2022-10-19T11:44:32.534Z,61
2022-10-19T11:45:32.568Z,62
2022-10-19T11:46:32.507Z,62
2022-10-19T11:47:32.984Z,62
2022-10-19T11:48:32.585Z,62
2022-10-19T11:49:32.518Z,61
2022-10-19T11:50:32.523Z,61
2022-10-19T11:51:32.541Z,61
2022-10-19T11:52:32.766Z,61
2022-10-19T11:53:32.519Z,62
2022-10-19T11:54:32.476Z,62
2022-10-19T11:55:32.531Z,61
2022-10-19T11:56:44.848Z,61
2022-10-19T11:57:33.036Z,62
2022-10-19T11:58:34.842Z,62
2022-10-19T11:59:32.510Z,62
2022-10-19T12:00:39.233Z,62
2022-10-19T12:01:32.626Z,62
2022-10-19T12:02:32.880Z,62
2022-10-19T12:03:32.525Z,62
2022-10-19T12:04:32.528Z,62
2022-10-19T12:05:32.509Z,62
2022-10-19T12:06:32.542Z,62
2022-10-19T12:07:32.541Z,62
2022-10-19T12:08:32.612Z,61
2022-10-19T12:09:32.507Z,61
2022-10-19T12:10:32.530Z,61
2022-10-19T12:11:32.535Z,61
2022-10-19T12:12:33.038Z,62
2022-10-19T12:13:32.482Z,62
2022-10-19T12:14:32.547Z,61
2022-10-19T12:15:32.538Z,60
2022-10-19T12:16:32.539Z,60
2022-10-19T12:17:32.844Z,59
2022-10-19T12:18:32.521Z,58
2022-10-19T12:19:32.534Z,58
2022-10-19T12:20:32.519Z,58
2022-10-19T12:21:32.526Z,57
2022-10-19T12:22:32.514Z,58
2022-10-19T12:23:32.522Z,58
2022-10-19T12:24:32.520Z,59
2022-10-19T12:25:32.492Z,59
2022-10-19T12:26:32.532Z,59
2022-10-19T12:27:32.973Z,59
2022-10-19T12:28:32.533Z,59
2022-10-19T12:29:32.511Z,59
2022-10-19T12:30:32.506Z,60
2022-10-19T12:31:32.509Z,60
2022-10-19T12:32:32.529Z,61
2022-10-19T12:33:32.481Z,61
2022-10-19T12:34:32.541Z,61
2022-10-19T12:35:32.533Z,60
2022-10-19T12:36:32.528Z,60
2022-10-19T12:37:32.749Z,61
2022-10-19T12:38:32.563Z,61
2022-10-19T12:39:32.555Z,61
2022-10-19T12:40:32.582Z,61
2022-10-19T12:41:32.646Z,61
2022-10-19T12:42:32.537Z,61
2022-10-19T12:43:32.503Z,62
2022-10-19T12:44:32.558Z,62
2022-10-19T12:45:32.501Z,62
2022-10-19T12:46:32.515Z,63
2022-10-19T12:47:32.802Z,63
2022-10-19T12:48:32.588Z,63
2022-10-19T12:49:32.495Z,63
2022-10-19T12:50:33.897Z,64
2022-10-19T12:51:32.618Z,64
2022-10-19T12:52:32.750Z,64
2022-10-19T12:53:32.488Z,63
2022-10-19T12:54:32.521Z,64
2022-10-19T12:55:32.529Z,64
2022-10-19T12:56:32.497Z,65
2022-10-19T12:57:32.487Z,65
2022-10-19T12:58:32.532Z,65
2022-10-19T12:59:32.637Z,65
2022-10-19T13:00:32.636Z,65
2022-10-19T13:01:32.488Z,65
2022-10-19T13:03:32.644Z,65
2022-10-19T13:04:32.571Z,65
2022-10-19T13:05:32.533Z,65
2022-10-19T13:06:32.531Z,65
2022-10-19T13:07:32.797Z,64
2022-10-19T13:08:32.587Z,63
2022-10-19T13:09:32.482Z,63
2022-10-19T13:10:32.575Z,63
2022-10-19T13:11:32.585Z,62
2022-10-19T13:12:32.532Z,62
2022-10-19T13:13:32.493Z,62
2022-10-19T13:14:32.518Z,62
2022-10-19T13:15:32.574Z,63
2022-10-19T13:16:32.509Z,63
2022-10-19T13:17:34.093Z,63
2022-10-19T13:18:32.555Z,63
2022-10-19T13:19:32.507Z,64
2022-10-19T13:20:33.217Z,64
2022-10-19T13:21:32.510Z,64
2022-10-19T13:22:32.803Z,63
2022-10-19T13:23:32.507Z,64
2022-10-19T13:24:32.675Z,64
2022-10-19T13:25:32.517Z,64
2022-10-19T13:26:32.511Z,64
2022-10-19T13:27:32.499Z,64
2022-10-19T13:28:32.513Z,65
2022-10-19T13:30:32.516Z,65
2022-10-19T13:31:32.510Z,65
2022-10-19T13:32:32.782Z,65
2022-10-19T13:33:32.493Z,65
2022-10-19T13:34:32.543Z,65
2022-10-19T13:35:32.519Z,64
2022-10-19T13:36:32.512Z,64
2022-10-19T13:37:34.720Z,64
2022-10-19T13:38:32.632Z,64
2022-10-19T13:39:32.527Z,64
2022-10-19T13:40:32.514Z,65
2022-10-19T13:41:32.514Z,65
2022-10-19T13:42:32.846Z,65
2022-10-19T13:43:32.498Z,65
2022-10-19T13:44:32.519Z,64
2022-10-19T13:45:32.523Z,64
2022-10-19T13:46:32.501Z,64
2022-10-19T13:47:32.850Z,64
2022-10-19T13:48:32.492Z,64
2022-10-19T13:49:32.848Z,64
2022-10-19T13:50:32.522Z,64
2022-10-19T13:51:32.512Z,64
2022-10-19T13:52:32.930Z,63
2022-10-19T13:53:32.496Z,64
2022-10-19T13:54:32.799Z,64
2022-10-19T13:55:32.510Z,64
2022-10-19T13:56:32.659Z,64
2022-10-19T13:57:32.752Z,64
2022-10-19T13:58:32.520Z,64
2022-10-19T13:59:32.492Z,64
2022-10-19T14:00:32.509Z,64
2022-10-19T14:01:32.923Z,64
2022-10-19T14:02:32.764Z,64
2022-10-19T14:03:32.478Z,64
2022-10-19T14:04:32.721Z,64
2022-10-19T14:05:32.571Z,64
2022-10-19T14:06:32.511Z,64
2022-10-19T14:07:32.785Z,64
2022-10-19T14:08:32.625Z,64
2022-10-19T14:09:32.508Z,65
2022-10-19T14:10:33.124Z,65
2022-10-19T14:11:32.488Z,65
2022-10-19T14:12:32.503Z,65
2022-10-19T14:13:32.511Z,65
2022-10-19T14:14:32.612Z,65
2022-10-19T14:15:32.537Z,65
2022-10-19T14:16:32.515Z,65
2022-10-19T14:17:32.960Z,65
2022-10-19T14:18:32.501Z,65
2022-10-19T14:19:32.495Z,66
2022-10-19T14:20:32.522Z,66